sensor_id;sensor_type;location;lat;lon;timestamp;pressure;altitude;pressure_sealevel;temperature;humidity
44988;BME280;35735;52.226;21.254;2023-02-23T00:03:01;100845.09;;;-0.70;89.14
44988;BME280;35735;52.226;21.254;2023-02-23T00:08:02;100847.06;;;-0.66;89.24
44988;BME280;35735;52.226;21.254;2023-02-23T00:13:02;100843.06;;;-0.58;89.41
44988;BME280;35735;52.226;21.254;2023-02-23T00:18:03;100847.84;;;-0.50;89.82
44988;BME280;35735;52.226;21.254;2023-02-23T00:23:04;100852.81;;;-0.40;90.25
44988;BME280;35735;52.226;21.254;2023-02-23T00:28:04;100840.63;;;-0.36;90.12
44988;BME280;35735;52.226;21.254;2023-02-23T00:33:05;100841.13;;;-0.26;90.13
44988;BME280;35735;52.226;21.254;2023-02-23T00:38:05;100840.47;;;-0.22;90.04
44988;BME280;35735;52.226;21.254;2023-02-23T00:43:06;100843.13;;;-0.22;90.03
44988;BME280;35735;52.226;21.254;2023-02-23T00:48:06;100843.94;;;-0.23;90.14
44988;BME280;35735;52.226;21.254;2023-02-23T00:53:07;100838.47;;;-0.26;90.36
44988;BME280;35735;52.226;21.254;2023-02-23T00:58:07;100834.94;;;-0.26;90.59
44988;BME280;35735;52.226;21.254;2023-02-23T01:03:08;100835.84;;;-0.26;90.44
44988;BME280;35735;52.226;21.254;2023-02-23T01:08:09;100832.28;;;-0.26;90.73
44988;BME280;35735;52.226;21.254;2023-02-23T01:13:10;100825.12;;;-0.27;90.89
44988;BME280;35735;52.226;21.254;2023-02-23T01:18:11;100817.34;;;-0.24;91.18
44988;BME280;35735;52.226;21.254;2023-02-23T01:23:13;100821.59;;;-0.28;91.76
44988;BME280;35735;52.226;21.254;2023-02-23T01:28:14;100820.06;;;-0.23;92.01
44988;BME280;35735;52.226;21.254;2023-02-23T01:33:14;100818.25;;;-0.24;91.56
44988;BME280;35735;52.226;21.254;2023-02-23T01:38:15;100811.41;;;-0.19;91.96
44988;BME280;35735;52.226;21.254;2023-02-23T01:43:18;100812.09;;;-0.23;91.92
44988;BME280;35735;52.226;21.254;2023-02-23T01:48:22;100802.03;;;-0.30;92.14
44988;BME280;35735;52.226;21.254;2023-02-23T01:53:29;100802.84;;;-0.31;92.50
44988;BME280;35735;52.226;21.254;2023-02-23T01:58:32;100790.56;;;-0.29;92.54
44988;BME280;35735;52.226;21.254;2023-02-23T02:03:36;100792.25;;;-0.31;92.57
44988;BME280;35735;52.226;21.254;2023-02-23T02:08:49;100778.38;;;-0.43;92.88
44988;BME280;35735;52.226;21.254;2023-02-23T02:13:56;100783.91;;;-0.57;93.21
44988;BME280;35735;52.226;21.254;2023-02-23T02:41:46;100784.41;;;-0.64;94.89
44988;BME280;35735;52.226;21.254;2023-02-23T02:46:28;100768.56;;;-0.62;95.26
44988;BME280;35735;52.226;21.254;2023-02-23T02:56:45;100771.59;;;-0.72;95.97
44988;BME280;35735;52.226;21.254;2023-02-23T03:01:47;100775.09;;;-0.73;96.20
44988;BME280;35735;52.226;21.254;2023-02-23T03:07:43;100775.69;;;-0.79;96.50
44988;BME280;35735;52.226;21.254;2023-02-23T03:18:05;100781.75;;;-0.64;97.57
44988;BME280;35735;52.226;21.254;2023-02-23T03:28:24;100775.72;;;-0.61;98.00
44988;BME280;35735;52.226;21.254;2023-02-23T03:39:29;100780.41;;;-0.56;98.12
44988;BME280;35735;52.226;21.254;2023-02-23T03:44:18;100770.72;;;-0.55;98.38
44988;BME280;35735;52.226;21.254;2023-02-23T03:49:26;100775.41;;;-0.49;98.61
44988;BME280;35735;52.226;21.254;2023-02-23T03:54:38;100770.56;;;-0.58;98.54
44988;BME280;35735;52.226;21.254;2023-02-23T03:59:51;100776.31;;;-0.67;98.67
44988;BME280;35735;52.226;21.254;2023-02-23T04:04:54;100781.62;;;-0.67;98.97
44988;BME280;35735;52.226;21.254;2023-02-23T04:09:57;100782.28;;;-0.71;99.19
44988;BME280;35735;52.226;21.254;2023-02-23T04:15:09;100777.31;;;-0.65;99.49
44988;BME280;35735;52.226;21.254;2023-02-23T04:20:12;100778.28;;;-0.63;99.56
44988;BME280;35735;52.226;21.254;2023-02-23T04:25:14;100777.56;;;-0.60;99.68
44988;BME280;35735;52.226;21.254;2023-02-23T04:30:17;100775.63;;;-0.63;99.84
44988;BME280;35735;52.226;21.254;2023-02-23T04:35:17;100778.28;;;-0.63;100.00
44988;BME280;35735;52.226;21.254;2023-02-23T04:40:18;100771.16;;;-0.64;100.00
44988;BME280;35735;52.226;21.254;2023-02-23T04:45:19;100776.16;;;-0.70;100.00
44988;BME280;35735;52.226;21.254;2023-02-23T04:50:20;100774.00;;;-0.77;100.00
44988;BME280;35735;52.226;21.254;2023-02-23T04:55:23;100768.87;;;-0.74;100.00
44988;BME280;35735;52.226;21.254;2023-02-23T05:00:25;100776.16;;;-0.70;100.00
44988;BME280;35735;52.226;21.254;2023-02-23T05:05:26;100772.44;;;-0.73;100.00
44988;BME280;35735;52.226;21.254;2023-02-23T05:10:27;100774.78;;;-0.80;100.00
44988;BME280;35735;52.226;21.254;2023-02-23T05:15:27;100771.34;;;-0.77;100.00
44988;BME280;35735;52.226;21.254;2023-02-23T05:20:28;100774.16;;;-0.74;100.00
44988;BME280;35735;52.226;21.254;2023-02-23T05:25:28;100773.09;;;-0.78;100.00
44988;BME280;35735;52.226;21.254;2023-02-23T05:30:30;100773.28;;;-0.75;100.00
44988;BME280;35735;52.226;21.254;2023-02-23T05:35:30;100770.62;;;-0.75;100.00
44988;BME280;35735;52.226;21.254;2023-02-23T05:40:31;100776.53;;;-0.80;100.00
44988;BME280;35735;52.226;21.254;2023-02-23T05:45:32;100771.72;;;-0.87;100.00
44988;BME280;35735;52.226;21.254;2023-02-23T05:50:32;100774.28;;;-0.89;100.00
44988;BME280;35735;52.226;21.254;2023-02-23T05:55:34;100786.66;;;-0.89;100.00
44988;BME280;35735;52.226;21.254;2023-02-23T06:00:35;100780.53;;;-0.88;100.00
44988;BME280;35735;52.226;21.254;2023-02-23T06:05:35;100790.28;;;-0.87;100.00
44988;BME280;35735;52.226;21.254;2023-02-23T06:10:36;100779.59;;;-0.89;100.00
44988;BME280;35735;52.226;21.254;2023-02-23T06:15:37;100786.19;;;-0.81;100.00
44988;BME280;35735;52.226;21.254;2023-02-23T06:20:37;100785.84;;;-0.70;100.00
44988;BME280;35735;52.226;21.254;2023-02-23T06:25:38;100784.41;;;-0.64;100.00
44988;BME280;35735;52.226;21.254;2023-02-23T06:30:38;100795.69;;;-0.68;100.00
44988;BME280;35735;52.226;21.254;2023-02-23T06:35:39;100789.72;;;-0.64;100.00
44988;BME280;35735;52.226;21.254;2023-02-23T06:40:40;100792.69;;;-0.58;100.00
44988;BME280;35735;52.226;21.254;2023-02-23T06:45:40;100798.16;;;-0.54;100.00
44988;BME280;35735;52.226;21.254;2023-02-23T06:50:41;100794.34;;;-0.60;100.00
44988;BME280;35735;52.226;21.254;2023-02-23T06:55:41;100800.44;;;-0.44;100.00
44988;BME280;35735;52.226;21.254;2023-02-23T07:00:42;100799.97;;;-0.35;100.00
44988;BME280;35735;52.226;21.254;2023-02-23T07:05:42;100797.00;;;-0.24;100.00
44988;BME280;35735;52.226;21.254;2023-02-23T07:10:44;100791.78;;;-0.22;100.00
44988;BME280;35735;52.226;21.254;2023-02-23T07:15:45;100794.44;;;-0.22;100.00
44988;BME280;35735;52.226;21.254;2023-02-23T07:20:45;100788.97;;;-0.25;100.00
44988;BME280;35735;52.226;21.254;2023-02-23T07:25:49;100782.22;;;-0.19;100.00
44988;BME280;35735;52.226;21.254;2023-02-23T07:30:50;100784.53;;;-0.08;100.00
44988;BME280;35735;52.226;21.254;2023-02-23T07:35:50;100784.31;;;0.07;100.00
44988;BME280;35735;52.226;21.254;2023-02-23T07:40:51;100771.44;;;0.14;100.00
44988;BME280;35735;52.226;21.254;2023-02-23T07:45:52;100770.53;;;0.33;100.00
44988;BME280;35735;52.226;21.254;2023-02-23T07:50:53;100780.63;;;0.41;99.96
44988;BME280;35735;52.226;21.254;2023-02-23T07:55:57;100769.53;;;0.49;99.75
44988;BME280;35735;52.226;21.254;2023-02-23T08:00:57;100771.16;;;0.65;100.00
44988;BME280;35735;52.226;21.254;2023-02-23T08:05:58;100759.72;;;0.87;99.68
44988;BME280;35735;52.226;21.254;2023-02-23T08:11:00;100755.50;;;1.12;99.16
44988;BME280;35735;52.226;21.254;2023-02-23T08:16:02;100742.19;;;1.12;98.37
44988;BME280;35735;52.226;21.254;2023-02-23T08:21:03;100748.78;;;1.22;98.40
44988;BME280;35735;52.226;21.254;2023-02-23T08:26:04;100743.75;;;1.28;98.10
44988;BME280;35735;52.226;21.254;2023-02-23T08:31:08;100734.69;;;1.44;97.71
44988;BME280;35735;52.226;21.254;2023-02-23T08:36:09;100727.12;;;1.34;96.94
44988;BME280;35735;52.226;21.254;2023-02-23T08:41:09;100727.12;;;1.34;96.62
44988;BME280;35735;52.226;21.254;2023-02-23T08:46:10;100722.63;;;1.54;97.35
44988;BME280;35735;52.226;21.254;2023-02-23T08:51:11;100714.50;;;1.72;96.75
44988;BME280;35735;52.226;21.254;2023-02-23T08:56:12;100707.44;;;1.72;96.63
44988;BME280;35735;52.226;21.254;2023-02-23T09:01:17;100704.59;;;1.90;96.61
44988;BME280;35735;52.226;21.254;2023-02-23T09:06:21;100705.44;;;2.12;96.78
44988;BME280;35735;52.226;21.254;2023-02-23T09:11:23;100694.87;;;2.37;95.76
44988;BME280;35735;52.226;21.254;2023-02-23T09:16:24;100695.63;;;2.57;95.40
44988;BME280;35735;52.226;21.254;2023-02-23T09:21:24;100694.94;;;2.89;94.93
44988;BME280;35735;52.226;21.254;2023-02-23T09:26:25;100691.13;;;3.06;94.00
44988;BME280;35735;52.226;21.254;2023-02-23T09:31:26;100678.47;;;3.26;94.15
44988;BME280;35735;52.226;21.254;2023-02-23T09:36:29;100675.62;;;3.22;93.27
44988;BME280;35735;52.226;21.254;2023-02-23T09:52:41;100657.94;;;3.51;93.70
44988;BME280;35735;52.226;21.254;2023-02-23T09:57:46;100663.22;;;3.78;92.64
44988;BME280;35735;52.226;21.254;2023-02-23T10:03:00;100650.81;;;3.80;91.85
44988;BME280;35735;52.226;21.254;2023-02-23T10:08:16;100648.34;;;3.86;91.46
44988;BME280;35735;52.226;21.254;2023-02-23T10:19:24;100638.13;;;4.02;90.91
44988;BME280;35735;52.226;21.254;2023-02-23T10:24:37;100637.44;;;4.09;90.84
44988;BME280;35735;52.226;21.254;2023-02-23T10:29:45;100634.72;;;4.07;91.01
44988;BME280;35735;52.226;21.254;2023-02-23T10:34:48;100628.88;;;4.19;90.54
44988;BME280;35735;52.226;21.254;2023-02-23T10:39:52;100612.03;;;4.23;90.71
44988;BME280;35735;52.226;21.254;2023-02-23T10:44:53;100602.91;;;4.47;91.20
44988;BME280;35735;52.226;21.254;2023-02-23T10:49:55;100598.00;;;4.64;89.35
44988;BME280;35735;52.226;21.254;2023-02-23T10:54:56;100590.75;;;4.58;89.28
44988;BME280;35735;52.226;21.254;2023-02-23T11:05:34;100576.75;;;4.69;89.04
44988;BME280;35735;52.226;21.254;2023-02-23T11:10:35;100553.88;;;4.80;89.16
44988;BME280;35735;52.226;21.254;2023-02-23T11:15:36;100545.84;;;4.80;89.24
44988;BME280;35735;52.226;21.254;2023-02-23T11:20:38;100529.97;;;4.86;89.06
44988;BME280;35735;52.226;21.254;2023-02-23T11:25:42;100524.69;;;4.91;88.99
44988;BME280;35735;52.226;21.254;2023-02-23T11:30:43;100519.59;;;5.00;88.79
44988;BME280;35735;52.226;21.254;2023-02-23T11:35:44;100504.59;;;5.07;88.94
44988;BME280;35735;52.226;21.254;2023-02-23T11:41:01;100508.44;;;5.18;88.90
44988;BME280;35735;52.226;21.254;2023-02-23T11:46:04;100504.16;;;5.28;88.94
44988;BME280;35735;52.226;21.254;2023-02-23T11:51:04;100497.19;;;5.34;88.51
44988;BME280;35735;52.226;21.254;2023-02-23T11:56:05;100489.19;;;5.36;88.52
44988;BME280;35735;52.226;21.254;2023-02-23T12:01:08;100470.44;;;5.36;88.67
44988;BME280;35735;52.226;21.254;2023-02-23T12:06:10;100468.81;;;5.43;88.20
44988;BME280;35735;52.226;21.254;2023-02-23T12:11:18;100460.69;;;5.39;88.43
44988;BME280;35735;52.226;21.254;2023-02-23T12:16:35;100449.09;;;5.39;87.93
44988;BME280;35735;52.226;21.254;2023-02-23T12:21:41;100438.31;;;5.36;88.04
44988;BME280;35735;52.226;21.254;2023-02-23T12:27:20;100436.59;;;5.38;88.62
44988;BME280;35735;52.226;21.254;2023-02-23T12:32:49;100421.59;;;5.45;88.55
44988;BME280;35735;52.226;21.254;2023-02-23T12:38:11;100422.41;;;5.42;87.53
44988;BME280;35735;52.226;21.254;2023-02-23T12:43:22;100412.53;;;5.39;87.95
44988;BME280;35735;52.226;21.254;2023-02-23T12:54:14;100397.66;;;5.54;88.14
44988;BME280;35735;52.226;21.254;2023-02-23T13:05:15;100394.19;;;5.60;87.12
44988;BME280;35735;52.226;21.254;2023-02-23T13:21:30;100371.72;;;5.50;87.33
44988;BME280;35735;52.226;21.254;2023-02-23T13:26:58;100361.00;;;5.50;87.29
44988;BME280;35735;52.226;21.254;2023-02-23T13:32:03;100353.81;;;5.49;87.41
44988;BME280;35735;52.226;21.254;2023-02-23T13:37:07;100344.94;;;5.50;87.47
44988;BME280;35735;52.226;21.254;2023-02-23T13:42:39;100340.47;;;5.50;87.03
44988;BME280;35735;52.226;21.254;2023-02-23T13:47:52;100332.34;;;5.46;87.14
44988;BME280;35735;52.226;21.254;2023-02-23T13:53:44;100319.78;;;5.42;86.69
44988;BME280;35735;52.226;21.254;2023-02-23T13:58:52;100314.44;;;5.42;87.45
44988;BME280;35735;52.226;21.254;2023-02-23T14:03:58;100313.59;;;5.46;87.25
44988;BME280;35735;52.226;21.254;2023-02-23T14:09:08;100304.53;;;5.37;86.87
44988;BME280;35735;52.226;21.254;2023-02-23T14:14:14;100296.50;;;5.37;87.63
44988;BME280;35735;52.226;21.254;2023-02-23T14:19:41;100284.03;;;5.39;87.98
44988;BME280;35735;52.226;21.254;2023-02-23T14:24:42;100282.25;;;5.38;87.65
44988;BME280;35735;52.226;21.254;2023-02-23T14:40:40;100263.53;;;5.40;88.33
44988;BME280;35735;52.226;21.254;2023-02-23T14:45:45;100259.00;;;5.36;88.27
44988;BME280;35735;52.226;21.254;2023-02-23T14:50:46;100258.88;;;5.28;88.38
44988;BME280;35735;52.226;21.254;2023-02-23T14:55:47;100251.66;;;5.26;88.68
44988;BME280;35735;52.226;21.254;2023-02-23T15:00:48;100250.81;;;5.27;88.90
44988;BME280;35735;52.226;21.254;2023-02-23T15:05:52;100249.91;;;5.26;89.21
44988;BME280;35735;52.226;21.254;2023-02-23T15:11:02;100242.69;;;5.22;89.24
44988;BME280;35735;52.226;21.254;2023-02-23T15:16:25;100242.66;;;5.20;89.66
44988;BME280;35735;52.226;21.254;2023-02-23T15:21:28;100238.22;;;5.23;89.72
44988;BME280;35735;52.226;21.254;2023-02-23T15:26:32;100236.47;;;5.23;89.98
44988;BME280;35735;52.226;21.254;2023-02-23T15:31:35;100222.25;;;5.27;90.49
44988;BME280;35735;52.226;21.254;2023-02-23T15:36:37;100217.63;;;5.17;90.17
44988;BME280;35735;52.226;21.254;2023-02-23T15:41:38;100211.34;;;5.15;90.37
44988;BME280;35735;52.226;21.254;2023-02-23T15:46:40;100187.09;;;5.06;90.59
44988;BME280;35735;52.226;21.254;2023-02-23T15:51:55;100190.53;;;4.98;90.86
44988;BME280;35735;52.226;21.254;2023-02-23T15:57:05;100185.97;;;4.94;91.24
44988;BME280;35735;52.226;21.254;2023-02-23T16:02:15;100173.47;;;4.92;91.32
44988;BME280;35735;52.226;21.254;2023-02-23T16:07:20;100168.03;;;4.89;91.44
44988;BME280;35735;52.226;21.254;2023-02-23T16:12:27;100181.22;;;4.78;91.73
44988;BME280;35735;52.226;21.254;2023-02-23T16:17:43;100183.06;;;4.82;92.09
44988;BME280;35735;52.226;21.254;2023-02-23T16:22:46;100167.09;;;4.85;92.20
44988;BME280;35735;52.226;21.254;2023-02-23T16:28:11;100168.03;;;4.89;92.16
44988;BME280;35735;52.226;21.254;2023-02-23T16:33:24;100164.28;;;4.79;91.99
44988;BME280;35735;52.226;21.254;2023-02-23T16:38:35;100159.56;;;4.66;92.12
44988;BME280;35735;52.226;21.254;2023-02-23T16:43:37;100157.53;;;4.52;92.31
44988;BME280;35735;52.226;21.254;2023-02-23T16:48:39;100159.97;;;4.40;92.82
44988;BME280;35735;52.226;21.254;2023-02-23T16:53:40;100156.38;;;4.38;93.08
44988;BME280;35735;52.226;21.254;2023-02-23T16:58:44;100159.91;;;4.37;93.26
44988;BME280;35735;52.226;21.254;2023-02-23T17:03:46;100148.09;;;4.27;93.51
44988;BME280;35735;52.226;21.254;2023-02-23T17:08:47;100135.47;;;4.18;93.77
44988;BME280;35735;52.226;21.254;2023-02-23T17:13:47;100136.06;;;4.05;94.15
44988;BME280;35735;52.226;21.254;2023-02-23T17:18:48;100124.38;;;4.00;94.48
44988;BME280;35735;52.226;21.254;2023-02-23T17:23:50;100116.19;;;3.92;94.66
44988;BME280;35735;52.226;21.254;2023-02-23T17:28:51;100118.66;;;3.81;95.17
44988;BME280;35735;52.226;21.254;2023-02-23T17:33:52;100120.38;;;3.79;95.41
44988;BME280;35735;52.226;21.254;2023-02-23T17:38:53;100113.22;;;3.78;95.75
44988;BME280;35735;52.226;21.254;2023-02-23T17:43:54;100109.41;;;3.67;96.02
44988;BME280;35735;52.226;21.254;2023-02-23T17:48:54;100095.91;;;3.61;96.40
44988;BME280;35735;52.226;21.254;2023-02-23T17:53:55;100081.53;;;3.54;96.75
44988;BME280;35735;52.226;21.254;2023-02-23T17:58:58;100080.47;;;3.47;97.12
44988;BME280;35735;52.226;21.254;2023-02-23T18:03:58;100081.06;;;3.34;97.31
44988;BME280;35735;52.226;21.254;2023-02-23T18:08:59;100065.94;;;3.33;97.90
44988;BME280;35735;52.226;21.254;2023-02-23T18:14:00;100062.62;;;3.43;98.19
44988;BME280;35735;52.226;21.254;2023-02-23T18:19:01;100055.53;;;3.45;98.31
44988;BME280;35735;52.226;21.254;2023-02-23T18:24:02;100045.78;;;3.46;98.52
44988;BME280;35735;52.226;21.254;2023-02-23T18:29:03;100041.44;;;3.49;98.49
44988;BME280;35735;52.226;21.254;2023-02-23T18:34:03;100034.19;;;3.45;98.59
44988;BME280;35735;52.226;21.254;2023-02-23T18:39:06;100029.75;;;3.44;98.78
44988;BME280;35735;52.226;21.254;2023-02-23T18:44:10;100020.91;;;3.47;98.92
44988;BME280;35735;52.226;21.254;2023-02-23T18:49:18;100027.22;;;3.52;99.11
44988;BME280;35735;52.226;21.254;2023-02-23T18:54:20;100021.81;;;3.49;99.12
44988;BME280;35735;52.226;21.254;2023-02-23T18:59:20;100004.06;;;3.49;99.18
44988;BME280;35735;52.226;21.254;2023-02-23T19:04:21;99996.97;;;3.51;99.16
44988;BME280;35735;52.226;21.254;2023-02-23T19:09:21;99986.25;;;3.48;99.30
44988;BME280;35735;52.226;21.254;2023-02-23T19:14:22;99980.84;;;3.45;99.33
44988;BME280;35735;52.226;21.254;2023-02-23T19:19:23;99971.84;;;3.40;99.55
44988;BME280;35735;52.226;21.254;2023-02-23T19:24:24;99968.16;;;3.35;99.68
44988;BME280;35735;52.226;21.254;2023-02-23T19:29:24;99960.28;;;3.40;99.82
44988;BME280;35735;52.226;21.254;2023-02-23T19:34:25;99949.72;;;3.44;99.96
44988;BME280;35735;52.226;21.254;2023-02-23T19:39:26;99942.44;;;3.39;100.00
44988;BME280;35735;52.226;21.254;2023-02-23T19:44:26;99935.38;;;3.41;100.00
44988;BME280;35735;52.226;21.254;2023-02-23T19:49:27;99922.09;;;3.44;100.00
44988;BME280;35735;52.226;21.254;2023-02-23T19:54:27;99919.31;;;3.38;100.00
44988;BME280;35735;52.226;21.254;2023-02-23T19:59:28;99919.38;;;3.39;100.00
44988;BME280;35735;52.226;21.254;2023-02-23T20:04:30;99909.47;;;3.35;100.00
44988;BME280;35735;52.226;21.254;2023-02-23T20:09:30;99891.63;;;3.31;100.00
44988;BME280;35735;52.226;21.254;2023-02-23T20:14:31;99894.16;;;3.25;100.00
44988;BME280;35735;52.226;21.254;2023-02-23T20:19:32;99894.97;;;3.22;100.00
44988;BME280;35735;52.226;21.254;2023-02-23T20:24:32;99881.63;;;3.22;100.00
44988;BME280;35735;52.226;21.254;2023-02-23T20:29:33;99871.97;;;3.26;100.00
44988;BME280;35735;52.226;21.254;2023-02-23T20:34:34;99864.94;;;3.31;100.00
44988;BME280;35735;52.226;21.254;2023-02-23T20:39:34;99864.09;;;3.33;100.00
44988;BME280;35735;52.226;21.254;2023-02-23T20:44:35;99850.63;;;3.26;100.00
44988;BME280;35735;52.226;21.254;2023-02-23T20:49:36;99845.22;;;3.23;100.00
44988;BME280;35735;52.226;21.254;2023-02-23T20:54:37;99839.00;;;3.24;100.00
44988;BME280;35735;52.226;21.254;2023-02-23T20:59:38;99830.94;;;3.21;100.00
44988;BME280;35735;52.226;21.254;2023-02-23T21:04:38;99820.25;;;3.21;100.00
44988;BME280;35735;52.226;21.254;2023-02-23T21:09:39;99813.97;;;3.17;100.00
44988;BME280;35735;52.226;21.254;2023-02-23T21:14:39;99807.81;;;3.20;100.00
44988;BME280;35735;52.226;21.254;2023-02-23T21:19:40;99797.97;;;3.17;100.00
44988;BME280;35735;52.226;21.254;2023-02-23T21:24:41;99786.28;;;3.10;100.00
44988;BME280;35735;52.226;21.254;2023-02-23T21:29:42;99781.63;;;3.00;100.00
44988;BME280;35735;52.226;21.254;2023-02-23T21:34:42;99787.78;;;2.96;100.00
44988;BME280;35735;52.226;21.254;2023-02-23T21:39:43;99778.91;;;2.97;100.00
44988;BME280;35735;52.226;21.254;2023-02-23T21:44:44;99775.38;;;2.98;100.00
44988;BME280;35735;52.226;21.254;2023-02-23T21:49:44;99761.12;;;2.96;100.00
44988;BME280;35735;52.226;21.254;2023-02-23T21:54:50;99751.19;;;2.89;100.00
44988;BME280;35735;52.226;21.254;2023-02-23T21:59:51;99746.53;;;2.78;100.00
44988;BME280;35735;52.226;21.254;2023-02-23T22:04:52;99737.69;;;2.80;100.00
44988;BME280;35735;52.226;21.254;2023-02-23T22:09:52;99737.69;;;2.80;100.00
44988;BME280;35735;52.226;21.254;2023-02-23T22:14:53;99717.97;;;2.71;100.00
44988;BME280;35735;52.226;21.254;2023-02-23T22:19:54;99705.44;;;2.66;100.00
44988;BME280;35735;52.226;21.254;2023-02-23T22:24:54;99687.69;;;2.66;100.00
44988;BME280;35735;52.226;21.254;2023-02-23T22:29:55;99693.72;;;2.57;100.00
44988;BME280;35735;52.226;21.254;2023-02-23T22:34:55;99688.28;;;2.51;100.00
44988;BME280;35735;52.226;21.254;2023-02-23T22:39:59;99683.81;;;2.52;100.00
44988;BME280;35735;52.226;21.254;2023-02-23T22:45:00;99680.41;;;2.57;100.00
44988;BME280;35735;52.226;21.254;2023-02-23T22:50:01;99677.75;;;2.57;100.00
44988;BME280;35735;52.226;21.254;2023-02-23T22:55:02;99663.56;;;2.60;100.00
44988;BME280;35735;52.226;21.254;2023-02-23T23:00:04;99660.06;;;2.61;100.00
44988;BME280;35735;52.226;21.254;2023-02-23T23:05:07;99652.78;;;2.54;100.00
44988;BME280;35735;52.226;21.254;2023-02-23T23:10:08;99638.72;;;2.59;100.00
44988;BME280;35735;52.226;21.254;2023-02-23T23:15:10;99645.09;;;2.68;100.00
44988;BME280;35735;52.226;21.254;2023-02-23T23:20:11;99634.41;;;2.66;100.00
44988;BME280;35735;52.226;21.254;2023-02-23T23:25:11;99613.84;;;2.60;100.00
44988;BME280;35735;52.226;21.254;2023-02-23T23:30:12;99607.75;;;2.66;100.00
44988;BME280;35735;52.226;21.254;2023-02-23T23:35:12;99603.38;;;2.70;100.00
44988;BME280;35735;52.226;21.254;2023-02-23T23:40:13;99606.97;;;2.73;100.00
44988;BME280;35735;52.226;21.254;2023-02-23T23:45:16;99589.31;;;2.78;100.00
44988;BME280;35735;52.226;21.254;2023-02-23T23:50:18;99590.34;;;2.87;100.00
44988;BME280;35735;52.226;21.254;2023-02-23T23:55:19;99576.09;;;2.85;100.00
